Time;durP1;ratioP1;P1;durP2;ratioP2;P2;SDS_P1;SDS_P2;PMS_P1;PMS_P2;Temp;Humidity;BMP_temperature;BMP_pressure;BME280_temperature;BME280_humidity;BME280_pressure;Samples;Min_cycle;Max_cycle;Signal;HPM_P1;HPM_P2
2022/08/16 00:01:26;;;;;;;3.10;2.13;;;17.40;99.30;;;;;;5051946;28;20170;-68
2022/08/16 00:03:53;;;;;;;3.70;2.00;;;17.40;99.40;;;;;;5052449;28;20567;-68
2022/08/16 00:06:20;;;;;;;8.60;2.10;;;17.30;99.40;;;;;;5052332;28;20177;-68
2022/08/16 00:08:45;;;;;;;3.53;2.10;;;17.30;99.50;;;;;;5052552;28;20436;-68
2022/08/16 00:11:11;;;;;;;4.90;2.30;;;17.30;99.60;;;;;;5052111;28;20471;-68
2022/08/16 00:13:37;;;;;;;12.93;2.63;;;17.20;99.70;;;;;;5052454;28;20677;-68
2022/08/16 00:16:03;;;;;;;6.27;1.93;;;17.20;99.80;;;;;;5052429;28;20227;-68
2022/08/16 00:18:29;;;;;;;4.77;2.10;;;17.20;99.80;;;;;;5052325;28;20185;-68
2022/08/16 00:20:55;;;;;;;6.93;2.80;;;17.20;99.90;;;;;;5052212;28;20224;-68
2022/08/16 00:23:21;;;;;;;5.23;2.30;;;17.30;99.90;;;;;;5062601;28;20169;-68
2022/08/16 00:25:47;;;;;;;3.17;1.90;;;17.30;99.90;;;;;;5072203;28;20819;-68
2022/08/16 00:28:13;;;;;;;5.27;2.60;;;17.30;99.90;;;;;;5072088;28;20181;-68
2022/08/16 00:30:38;;;;;;;5.40;2.63;;;17.30;99.90;;;;;;5072339;28;20252;-68
2022/08/16 00:33:04;;;;;;;5.60;3.03;;;17.30;99.90;;;;;;5071851;28;20216;-68
2022/08/16 00:35:34;;;;;;;4.97;2.37;;;17.30;99.90;;;;;;5072003;28;20205;-69
2022/08/16 00:38:02;;;;;;;6.73;2.43;;;17.30;99.90;;;;;;5072014;28;20173;-68
2022/08/16 00:40:42;;;;;;;4.37;2.27;;;17.30;99.90;;;;;;5071812;28;20441;-68
2022/08/16 00:43:14;;;;;;;4.87;2.33;;;17.30;99.90;;;;;;5071760;28;20449;-69
2022/08/16 00:45:40;;;;;;;8.00;2.60;;;17.20;99.90;;;;;;5072054;28;20504;-68
2022/08/16 00:48:12;;;;;;;5.20;2.53;;;17.20;99.90;;;;;;5072037;28;21008;-68
2022/08/16 00:50:39;;;;;;;5.23;2.47;;;17.20;99.90;;;;;;5070853;28;20199;-68
2022/08/16 00:53:07;;;;;;;3.80;2.40;;;17.20;99.90;;;;;;5071336;28;20982;-68
2022/08/16 00:55:35;;;;;;;4.20;2.40;;;17.20;99.90;;;;;;5068872;28;20456;-67
2022/08/16 00:58:02;;;;;;;4.23;1.90;;;17.20;99.90;;;;;;5051863;28;20503;-67
2022/08/16 01:00:30;;;;;;;4.40;2.30;;;17.10;99.90;;;;;;5054035;28;20408;-67
2022/08/16 01:02:59;;;;;;;5.80;2.93;;;17.20;99.90;;;;;;5055011;28;20440;-67
2022/08/16 01:05:26;;;;;;;3.70;1.90;;;17.20;99.90;;;;;;5055515;28;20409;-68
2022/08/16 01:07:52;;;;;;;6.10;2.87;;;17.10;99.90;;;;;;5055423;28;20434;-67
2022/08/16 01:10:24;;;;;;;5.20;2.07;;;17.20;99.90;;;;;;5055779;28;20412;-68
2022/08/16 01:12:49;;;;;;;4.50;2.60;;;17.20;99.90;;;;;;5055024;28;20436;-67
2022/08/16 01:15:16;;;;;;;6.83;3.13;;;17.20;99.90;;;;;;5055405;28;20852;-67
2022/08/16 01:17:45;;;;;;;4.47;2.47;;;17.20;99.90;;;;;;5055387;28;20209;-67
2022/08/16 01:20:13;;;;;;;3.40;2.20;;;17.20;99.90;;;;;;5055401;28;20412;-68
2022/08/16 01:23:09;;;;;;;3.90;2.30;;;17.20;99.90;;;;;;5058097;28;20481;-68
2022/08/16 01:25:40;;;;;;;4.97;2.43;;;17.10;99.90;;;;;;5075149;28;20419;-68
2022/08/16 01:28:11;;;;;;;6.53;2.33;;;17.10;99.90;;;;;;5075508;28;20403;-68
2022/08/16 01:30:40;;;;;;;4.70;2.30;;;17.10;99.90;;;;;;5075260;28;20490;-68
2022/08/16 01:33:07;;;;;;;5.83;2.80;;;17.10;99.90;;;;;;5074906;28;20399;-68
2022/08/16 01:35:37;;;;;;;6.50;2.30;;;17.10;99.90;;;;;;5075266;28;20454;-68
2022/08/16 01:38:26;;;;;;;6.63;2.40;;;17.20;99.90;;;;;;5075166;28;20410;-68
2022/08/16 01:40:56;;;;;;;6.50;3.13;;;17.20;99.90;;;;;;5075231;28;20453;-68
2022/08/16 01:43:23;;;;;;;3.33;2.17;;;17.10;99.90;;;;;;5074913;28;20404;-68
2022/08/16 01:45:54;;;;;;;3.47;1.70;;;17.10;99.90;;;;;;5075012;28;20403;-69
2022/08/16 01:48:23;;;;;;;6.30;2.47;;;17.10;99.90;;;;;;5074964;28;20520;-67
2022/08/16 01:50:51;;;;;;;6.03;2.70;;;17.10;99.90;;;;;;5073884;28;20404;-68
2022/08/16 01:53:16;;;;;;;6.33;2.10;;;17.10;99.90;;;;;;5074210;28;20834;-68
2022/08/16 01:55:44;;;;;;;5.37;3.17;;;17.10;99.90;;;;;;5070437;28;20452;-68
2022/08/16 01:58:11;;;;;;;4.80;2.67;;;17.10;99.90;;;;;;5054793;28;20253;-68
2022/08/16 02:00:37;;;;;;;5.17;3.00;;;17.10;99.90;;;;;;5054673;28;20405;-68
2022/08/16 02:03:03;;;;;;;7.10;3.37;;;17.20;99.90;;;;;;5054154;28;20416;-68
2022/08/16 02:05:28;;;;;;;6.60;2.90;;;17.20;99.90;;;;;;5054452;28;20280;-67
2022/08/16 02:07:54;;;;;;;4.70;2.90;;;17.20;99.90;;;;;;5054386;28;20182;-67
2022/08/16 02:10:20;;;;;;;4.30;2.50;;;17.20;99.90;;;;;;5054707;28;20208;-68
2022/08/16 02:12:46;;;;;;;4.40;2.67;;;17.10;99.90;;;;;;5052951;28;20694;-68
2022/08/16 02:15:13;;;;;;;5.00;2.70;;;17.10;99.90;;;;;;5054281;28;20716;-68
2022/08/16 02:17:39;;;;;;;4.47;2.60;;;17.20;99.90;;;;;;5054442;28;20514;-68
2022/08/16 02:20:06;;;;;;;6.43;2.60;;;17.20;99.90;;;;;;5054307;28;20416;-68
2022/08/16 02:22:34;;;;;;;5.37;2.40;;;17.20;99.90;;;;;;5057600;28;20256;-68
2022/08/16 02:25:03;;;;;;;7.23;2.80;;;17.20;99.90;;;;;;5074184;28;20419;-68
2022/08/16 02:27:29;;;;;;;4.63;2.13;;;17.10;99.90;;;;;;5074194;28;20426;-68
2022/08/16 02:29:54;;;;;;;5.70;2.67;;;17.10;99.90;;;;;;5074009;28;20411;-68
2022/08/16 02:32:20;;;;;;;5.07;2.37;;;17.10;99.90;;;;;;5073744;28;20558;-68
2022/08/16 02:34:46;;;;;;;5.13;2.90;;;17.00;99.90;;;;;;5073872;28;20229;-69
2022/08/16 02:37:11;;;;;;;4.70;2.40;;;17.00;99.90;;;;;;5074035;28;20529;-68
2022/08/16 02:39:37;;;;;;;4.33;2.57;;;16.90;99.90;;;;;;5044934;28;20187;-68
2022/08/16 02:42:04;;;;;;;4.67;2.07;;;16.90;99.90;;;;;;5033638;28;20188;-68
2022/08/16 02:44:30;;;;;;;5.67;2.53;;;16.90;99.90;;;;;;5033876;28;20862;-68
2022/08/16 02:46:55;;;;;;;6.47;3.17;;;16.80;99.90;;;;;;5033846;28;20413;-68
2022/08/16 02:49:22;;;;;;;10.10;3.20;;;16.80;99.90;;;;;;5033747;28;20410;-68
2022/08/16 02:51:47;;;;;;;10.00;2.77;;;16.80;99.90;;;;;;5032478;28;20244;-68
2022/08/16 02:54:14;;;;;;;4.60;2.73;;;16.80;99.90;;;;;;5033649;28;20906;-68
2022/08/16 02:56:40;;;;;;;8.80;3.13;;;16.80;99.90;;;;;;5045829;28;20213;-68
2022/08/16 02:59:06;;;;;;;7.50;3.37;;;16.70;99.90;;;;;;5053621;28;20412;-68
2022/08/16 03:01:33;;;;;;;4.80;2.40;;;16.70;99.90;;;;;;5053494;28;20549;-68
2022/08/16 03:03:59;;;;;;;6.57;3.07;;;16.70;99.90;;;;;;5053276;28;20177;-69
2022/08/16 03:06:26;;;;;;;5.47;2.30;;;16.70;99.90;;;;;;5053696;28;20424;-68
2022/08/16 03:08:52;;;;;;;6.13;2.83;;;16.70;99.90;;;;;;5053537;28;20420;-68
2022/08/16 03:11:19;;;;;;;4.17;2.43;;;16.70;99.90;;;;;;5068898;22;20416;-68
2022/08/16 03:13:48;;;;;;;6.53;3.13;;;16.60;99.90;;;;;;5013230;28;20436;-69
2022/08/16 03:16:14;;;;;;;4.20;2.43;;;16.60;99.90;;;;;;5013708;28;20492;-68
2022/08/16 03:18:40;;;;;;;4.47;2.63;;;16.50;99.90;;;;;;5013590;28;20415;-69
2022/08/16 03:21:07;;;;;;;4.97;2.30;;;16.50;99.90;;;;;;5012976;28;20410;-68
2022/08/16 03:23:33;;;;;;;6.00;3.23;;;16.50;99.90;;;;;;5025224;28;20425;-68
2022/08/16 03:25:58;;;;;;;5.70;2.90;;;16.40;99.90;;;;;;5033050;28;20432;-69
2022/08/16 03:28:24;;;;;;;3.90;2.43;;;16.40;99.90;;;;;;5033147;28;20417;-68
2022/08/16 03:30:50;;;;;;;4.90;2.57;;;16.30;99.90;;;;;;5032914;28;20178;-68
2022/08/16 03:33:16;;;;;;;4.67;2.60;;;16.20;99.90;;;;;;5032846;28;20185;-67
2022/08/16 03:35:42;;;;;;;4.87;2.20;;;16.20;99.90;;;;;;5032742;28;20209;-67
2022/08/16 03:38:12;;;;;;;7.10;2.70;;;16.10;99.90;;;;;;5032911;28;20815;-67
2022/08/16 03:40:38;;;;;;;7.00;2.33;;;16.10;99.90;;;;;;5032618;28;20445;-67
2022/08/16 03:43:08;;;;;;;7.60;2.90;;;16.10;99.90;;;;;;5032628;28;20440;-67
2022/08/16 03:45:34;;;;;;;4.70;3.10;;;16.20;99.90;;;;;;5032765;28;20833;-67
2022/08/16 03:48:01;;;;;;;3.73;2.50;;;16.20;99.90;;;;;;5032641;28;20499;-67
2022/08/16 03:50:27;;;;;;;6.47;2.90;;;16.30;99.90;;;;;;5031741;28;20417;-67
2022/08/16 03:52:53;;;;;;;4.47;2.57;;;16.30;99.90;;;;;;5032070;28;20436;-67
2022/08/16 03:55:19;;;;;;;4.20;2.27;;;16.40;99.90;;;;;;5032325;28;20210;-67
2022/08/16 03:57:44;;;;;;;6.70;2.60;;;16.40;99.90;;;;;;5032457;28;20190;-67
2022/08/16 04:00:17;;;;;;;6.10;2.30;;;16.50;99.90;;;;;;5032569;28;20181;-68
2022/08/16 04:02:43;;;;;;;4.40;2.87;;;16.50;99.90;;;;;;5032165;28;20190;-67
2022/08/16 04:05:11;;;;;;;12.30;2.67;;;16.60;99.90;;;;;;5032316;28;20408;-67
2022/08/16 04:07:37;;;;;;;4.50;2.90;;;16.60;99.90;;;;;;5032372;28;20453;-68
2022/08/16 04:10:06;;;;;;;8.07;2.43;;;16.70;99.90;;;;;;5032167;28;20420;-68
2022/08/16 04:12:31;;;;;;;6.13;3.03;;;16.70;99.90;;;;;;5031725;28;20495;-68
2022/08/16 04:14:57;;;;;;;4.60;2.70;;;16.70;99.90;;;;;;5032081;28;20929;-67
2022/08/16 04:17:23;;;;;;;5.50;3.00;;;16.70;99.90;;;;;;5032400;28;20185;-68
2022/08/16 04:19:49;;;;;;;4.23;2.90;;;16.70;99.90;;;;;;5032170;28;20185;-67
2022/08/16 04:22:15;;;;;;;5.00;2.20;;;16.80;99.90;;;;;;5031878;28;20175;-67
2022/08/16 04:24:41;;;;;;;6.07;2.77;;;16.80;99.90;;;;;;5032122;28;20171;-68
2022/08/16 04:27:07;;;;;;;5.10;2.80;;;16.70;99.90;;;;;;5032458;28;20463;-68
2022/08/16 04:29:32;;;;;;;4.70;2.23;;;16.70;99.90;;;;;;5032169;28;20179;-68
2022/08/16 04:31:58;;;;;;;3.10;1.77;;;16.70;99.90;;;;;;5031888;28;20227;-67
2022/08/16 04:34:30;;;;;;;4.40;2.53;;;16.70;99.90;;;;;;5032646;28;20190;-67
2022/08/16 04:36:57;;;;;;;7.00;2.33;;;16.70;99.90;;;;;;5036352;28;20555;-68
2022/08/16 04:39:24;;;;;;;4.17;2.53;;;16.70;99.90;;;;;;5036485;28;20956;-67
2022/08/16 04:41:50;;;;;;;5.03;2.97;;;16.70;99.90;;;;;;5036098;28;20408;-68
2022/08/16 04:44:16;;;;;;;3.37;2.07;;;16.70;99.90;;;;;;5036257;28;20413;-68
2022/08/16 04:46:42;;;;;;;4.10;2.27;;;16.80;99.90;;;;;;5036052;28;20178;-67
2022/08/16 04:49:08;;;;;;;5.33;2.33;;;16.80;99.90;;;;;;5036180;28;20432;-67
2022/08/16 04:51:34;;;;;;;15.67;3.40;;;16.90;99.90;;;;;;5034758;28;20220;-67
2022/08/16 04:54:00;;;;;;;6.17;2.97;;;16.90;99.90;;;;;;5036106;28;20499;-68
2022/08/16 04:56:25;;;;;;;5.03;3.00;;;17.00;99.90;;;;;;5035678;28;20203;-68
2022/08/16 04:58:51;;;;;;;4.20;2.70;;;17.00;99.90;;;;;;5036021;28;20171;-68
2022/08/16 05:01:17;;;;;;;7.13;2.40;;;17.00;99.90;;;;;;5035540;28;20175;-68
2022/08/16 05:03:43;;;;;;;4.40;2.50;;;17.10;99.90;;;;;;5035890;28;20169;-68
2022/08/16 05:06:09;;;;;;;3.00;1.77;;;17.10;99.90;;;;;;5035738;28;20500;-67
2022/08/16 05:08:35;;;;;;;9.50;3.10;;;17.20;99.90;;;;;;5035948;28;20535;-68
2022/08/16 05:11:04;;;;;;;3.73;2.23;;;17.20;99.90;;;;;;5035078;28;20182;-67
2022/08/16 05:13:30;;;;;;;3.57;2.30;;;17.30;99.90;;;;;;5035479;28;20495;-67
2022/08/16 05:15:56;;;;;;;6.00;2.80;;;17.40;99.90;;;;;;5035528;28;20557;-67
2022/08/16 05:18:21;;;;;;;5.70;2.80;;;17.40;99.90;;;;;;5035550;28;20825;-67
2022/08/16 05:20:47;;;;;;;5.03;2.60;;;17.50;99.90;;;;;;5035322;28;20262;-67
2022/08/16 05:23:15;;;;;;;5.33;2.50;;;17.50;99.90;;;;;;5034962;28;20178;-67
2022/08/16 05:25:41;;;;;;;6.30;2.90;;;17.60;99.90;;;;;;5035205;28;20749;-67
2022/08/16 05:28:09;;;;;;;3.27;2.13;;;17.60;99.90;;;;;;5035190;28;20425;-68
2022/08/16 05:30:35;;;;;;;5.10;2.50;;;17.70;99.90;;;;;;5035202;28;20240;-68
2022/08/16 05:33:00;;;;;;;8.30;2.20;;;17.80;99.90;;;;;;5034921;28;20772;-67
2022/08/16 05:35:26;;;;;;;6.63;2.70;;;17.80;99.90;;;;;;5034923;28;20678;-67
2022/08/16 05:37:51;;;;;;;5.43;2.50;;;17.90;99.90;;;;;;5035138;28;20241;-67
2022/08/16 05:40:17;;;;;;;6.20;2.90;;;17.90;99.90;;;;;;5034937;28;20174;-68
2022/08/16 05:42:43;;;;;;;5.97;2.33;;;17.90;99.90;;;;;;5034293;28;20663;-68
2022/08/16 05:45:09;;;;;;;12.03;3.07;;;18.00;99.90;;;;;;5034911;28;20810;-67
2022/08/16 05:47:35;;;;;;;8.83;2.10;;;18.00;99.90;;;;;;5034899;28;20506;-67
2022/08/16 05:50:01;;;;;;;6.20;2.17;;;18.00;99.90;;;;;;5035007;28;20437;-68
2022/08/16 05:52:26;;;;;;;7.53;3.30;;;18.00;99.90;;;;;;5033174;28;20441;-68
2022/08/16 05:54:52;;;;;;;4.27;1.83;;;18.10;99.90;;;;;;5034819;28;20556;-67
2022/08/16 05:57:19;;;;;;;5.63;2.40;;;18.10;99.90;;;;;;5017594;28;20536;-68
2022/08/16 05:59:46;;;;;;;15.60;3.00;;;18.10;99.90;;;;;;5014870;28;20651;-67
2022/08/16 06:02:12;;;;;;;5.53;2.63;;;18.20;99.90;;;;;;5014521;28;21029;-67
2022/08/16 06:04:38;;;;;;;5.73;2.40;;;18.10;99.90;;;;;;5015178;28;20953;-68
2022/08/16 06:07:05;;;;;;;4.40;2.30;;;18.20;99.90;;;;;;5014730;28;20666;-67
2022/08/16 06:09:32;;;;;;;6.00;2.40;;;18.20;99.90;;;;;;5014960;28;20182;-67
2022/08/16 06:12:00;;;;;;;9.07;2.03;;;18.20;99.90;;;;;;5014357;28;20437;-67
2022/08/16 06:14:26;;;;;;;3.80;2.50;;;18.30;99.90;;;;;;5014920;28;20411;-67
2022/08/16 06:16:52;;;;;;;4.90;2.50;;;18.30;99.90;;;;;;5014547;28;20470;-67
2022/08/16 06:19:18;;;;;;;6.03;2.03;;;18.40;99.90;;;;;;5014886;28;20440;-67
2022/08/16 06:21:45;;;;;;;5.30;2.40;;;18.50;99.90;;;;;;5014077;28;20580;-68
2022/08/16 06:24:10;;;;;;;3.40;1.80;;;18.50;99.90;;;;;;5014498;28;20414;-68
2022/08/16 06:26:36;;;;;;;6.33;2.80;;;18.60;99.90;;;;;;5014381;28;20437;-68
2022/08/16 06:29:02;;;;;;;3.33;2.10;;;18.60;99.90;;;;;;5014479;28;20199;-67
2022/08/16 06:31:28;;;;;;;4.77;2.30;;;18.70;99.90;;;;;;5013765;28;20175;-67
2022/08/16 06:33:54;;;;;;;5.40;2.53;;;18.70;99.90;;;;;;5014440;28;20406;-67
2022/08/16 06:36:19;;;;;;;5.20;2.43;;;18.70;99.90;;;;;;5014021;28;20214;-67
2022/08/16 06:38:45;;;;;;;8.33;3.03;;;18.80;99.90;;;;;;5014170;28;20198;-66
2022/08/16 06:41:11;;;;;;;5.00;2.50;;;18.90;99.90;;;;;;5013774;28;20210;-66
2022/08/16 06:43:37;;;;;;;4.93;2.30;;;19.00;99.90;;;;;;5014003;28;20692;-67
2022/08/16 06:46:07;;;;;;;4.97;2.57;;;19.20;99.90;;;;;;5014045;28;20175;-67
2022/08/16 06:48:32;;;;;;;6.77;2.40;;;19.20;99.90;;;;;;5013966;28;20179;-67
2022/08/16 06:50:58;;;;;;;7.10;2.50;;;19.40;99.90;;;;;;5012596;28;20460;-67
2022/08/16 06:53:24;;;;;;;7.10;3.10;;;19.50;99.90;;;;;;5013612;28;20672;-67
2022/08/16 06:55:49;;;;;;;6.30;2.70;;;19.70;99.90;;;;;;5013648;28;20199;-67
2022/08/16 06:58:15;;;;;;;3.63;2.23;;;19.70;99.90;;;;;;5013115;28;20175;-66
2022/08/16 07:00:41;;;;;;;5.83;2.47;;;19.80;99.90;;;;;;5013768;28;20512;-67
2022/08/16 07:03:07;;;;;;;6.90;2.50;;;19.90;99.90;;;;;;5013187;28;20202;-67
2022/08/16 07:05:33;;;;;;;4.30;2.30;;;20.10;99.90;;;;;;5013671;28;20184;-67
2022/08/16 07:07:58;;;;;;;5.07;2.53;;;20.30;99.90;;;;;;5013605;28;20418;-68
2022/08/16 07:10:26;;;;;;;6.10;2.73;;;20.60;99.90;;;;;;5013534;28;20689;-68
2022/08/16 07:12:52;;;;;;;6.20;2.77;;;21.00;98.40;;;;;;5013057;28;20195;-67
2022/08/16 07:15:17;;;;;;;7.03;3.13;;;21.30;97.90;;;;;;5013199;28;20477;-67
2022/08/16 07:17:44;;;;;;;8.60;2.90;;;21.40;97.10;;;;;;5013559;28;20210;-67
2022/08/16 07:20:11;;;;;;;6.20;2.90;;;21.70;96.80;;;;;;5013617;28;20175;-68
2022/08/16 07:22:38;;;;;;;3.80;2.17;;;22.20;96.00;;;;;;5012975;28;20430;-68
2022/08/16 07:25:09;;;;;;;4.23;2.47;;;22.60;94.70;;;;;;5013305;28;20488;-68
2022/08/16 07:27:34;;;;;;;3.57;2.17;;;23.00;93.80;;;;;;5013469;28;20771;-67
2022/08/16 07:30:00;;;;;;;3.90;2.67;;;23.10;93.30;;;;;;5013250;28;20891;-68
2022/08/16 07:32:27;;;;;;;6.53;2.40;;;23.20;93.30;;;;;;5012971;28;20175;-68
2022/08/16 07:34:52;;;;;;;5.10;2.60;;;23.60;92.70;;;;;;5013320;28;20678;-67
2022/08/16 07:37:18;;;;;;;6.30;2.60;;;24.20;92.00;;;;;;5013244;28;20414;-68
2022/08/16 07:39:43;;;;;;;4.50;2.53;;;25.00;90.50;;;;;;5013361;28;20182;-68
2022/08/16 07:42:10;;;;;;;5.00;2.90;;;25.60;87.90;;;;;;5012922;28;20654;-68
2022/08/16 07:44:36;;;;;;;6.43;2.40;;;26.20;85.10;;;;;;5012858;28;20209;-68
2022/08/16 07:47:01;;;;;;;5.20;2.33;;;26.60;83.60;;;;;;5012968;28;20178;-67
2022/08/16 07:49:27;;;;;;;5.18;2.55;;;27.40;79.80;;;;;;5012979;28;20242;-68
2022/08/16 07:51:53;;;;;;;4.45;2.50;;;27.60;78.50;;;;;;5011586;28;20690;-67
2022/08/16 07:54:19;;;;;;;3.60;2.05;;;27.50;76.90;;;;;;5012883;28;20702;-67
2022/08/16 07:56:45;;;;;;;4.75;2.55;;;27.30;77.60;;;;;;5012497;28;20203;-68
2022/08/16 07:59:11;;;;;;;4.57;2.35;;;27.50;77.70;;;;;;5012796;28;20293;-68
2022/08/16 08:01:37;;;;;;;21.75;3.38;;;28.10;74.90;;;;;;5012201;28;20261;-68
2022/08/16 08:04:03;;;;;;;4.15;2.88;;;28.40;74.10;;;;;;5012293;28;20188;-67
2022/08/16 08:06:31;;;;;;;4.22;2.70;;;28.20;74.70;;;;;;5012805;28;20179;-68
2022/08/16 08:08:57;;;;;;;8.45;2.70;;;28.60;73.90;;;;;;5011977;28;20706;-68
2022/08/16 08:11:24;;;;;;;6.93;2.75;;;28.40;73.30;;;;;;5011566;28;20647;-68
2022/08/16 08:13:53;;;;;;;3.05;2.10;;;28.60;73.00;;;;;;5012452;28;20175;-68
2022/08/16 08:16:20;;;;;;;4.13;2.50;;;29.20;71.20;;;;;;5012361;28;20248;-69
2022/08/16 08:18:47;;;;;;;5.40;3.10;;;29.00;70.00;;;;;;5012610;28;20173;-68
2022/08/16 08:21:12;;;;;;;5.43;2.97;;;27.90;73.20;;;;;;5012318;28;20171;-68
2022/08/16 08:23:38;;;;;;;10.18;2.97;;;26.60;76.60;;;;;;5012380;28;20591;-68
2022/08/16 08:26:05;;;;;;;5.88;3.15;;;26.40;78.00;;;;;;5012358;28;20229;-68
2022/08/16 08:28:31;;;;;;;5.78;3.22;;;27.00;76.50;;;;;;5012663;28;20498;-68
2022/08/16 08:30:58;;;;;;;6.68;2.45;;;27.50;75.60;;;;;;5012231;28;20325;-67
2022/08/16 08:33:24;;;;;;;9.55;3.10;;;27.50;74.50;;;;;;5012187;28;20181;-68
2022/08/16 08:35:51;;;;;;;5.97;2.85;;;27.00;75.50;;;;;;5012284;28;20540;-68
2022/08/16 08:38:19;;;;;;;10.10;3.08;;;26.70;77.00;;;;;;5012228;28;20210;-67
2022/08/16 08:40:45;;;;;;;4.90;2.70;;;26.40;77.60;;;;;;5012360;28;20193;-67
2022/08/16 08:43:12;;;;;;;4.67;2.37;;;26.20;79.40;;;;;;5011996;28;20202;-68
2022/08/16 08:45:39;;;;;;;5.83;2.80;;;26.10;78.30;;;;;;5012187;28;20261;-68
2022/08/16 08:48:05;;;;;;;6.67;2.57;;;25.80;78.70;;;;;;5012177;28;20183;-68
2022/08/16 08:50:31;;;;;;;5.03;3.50;;;26.30;78.00;;;;;;5011073;28;20582;-68
2022/08/16 08:52:56;;;;;;;5.57;2.47;;;26.20;78.00;;;;;;5011905;28;20174;-68
2022/08/16 08:55:23;;;;;;;6.37;3.00;;;26.40;77.60;;;;;;5012099;28;20205;-68
2022/08/16 08:57:50;;;;;;;6.80;2.80;;;26.10;78.10;;;;;;5012208;28;20179;-69
2022/08/16 09:00:18;;;;;;;4.63;2.47;;;25.50;79.30;;;;;;5012297;28;20166;-68
2022/08/16 09:02:44;;;;;;;8.03;3.40;;;25.00;79.90;;;;;;5011793;28;20401;-69
2022/08/16 09:05:13;;;;;;;8.57;3.27;;;24.70;81.50;;;;;;5012240;28;20413;-68
2022/08/16 09:07:39;;;;;;;6.20;2.10;;;24.40;80.50;;;;;;5012399;28;20413;-68
2022/08/16 09:10:07;;;;;;;3.17;2.23;;;24.00;81.30;;;;;;5012564;28;20885;-68
2022/08/16 09:12:34;;;;;;;4.47;2.13;;;23.80;82.00;;;;;;5011647;28;20201;-68
2022/08/16 09:15:00;;;;;;;4.43;2.20;;;23.70;82.60;;;;;;5012216;28;20421;-68
2022/08/16 09:17:27;;;;;;;3.67;2.30;;;23.60;82.50;;;;;;5012207;28;20417;-68
2022/08/16 09:19:54;;;;;;;6.03;1.93;;;24.40;79.80;;;;;;5012164;28;20428;-68
2022/08/16 09:22:21;;;;;;;8.97;2.13;;;25.30;78.50;;;;;;5015105;28;20749;-69
2022/08/16 09:24:49;;;;;;;3.27;1.83;;;26.00;76.20;;;;;;5015726;28;20420;-69
2022/08/16 09:27:14;;;;;;;4.13;2.43;;;26.20;75.00;;;;;;5015696;28;20185;-68
2022/08/16 09:29:40;;;;;;;4.83;2.07;;;26.50;74.20;;;;;;5015391;28;20174;-68
2022/08/16 09:32:06;;;;;;;3.07;2.10;;;26.40;74.40;;;;;;5014905;28;20166;-68
2022/08/16 09:34:32;;;;;;;6.30;2.57;;;26.50;74.30;;;;;;5015502;28;20262;-68
2022/08/16 09:36:57;;;;;;;8.73;2.57;;;26.90;71.60;;;;;;5015440;28;20225;-68
2022/08/16 09:39:24;;;;;;;6.88;2.63;;;27.20;71.50;;;;;;5015500;28;20619;-68
2022/08/16 09:41:54;;;;;;;4.50;2.45;;;27.70;70.60;;;;;;5014978;28;20167;-68
2022/08/16 09:44:23;;;;;;;3.50;2.30;;;27.70;71.00;;;;;;5015281;28;20170;-68
2022/08/16 09:46:49;;;;;;;4.97;2.42;;;27.40;70.40;;;;;;5014954;28;20221;-68
2022/08/16 09:49:16;;;;;;;6.50;2.47;;;26.70;72.20;;;;;;5015045;28;20273;-68
2022/08/16 09:51:41;;;;;;;7.73;2.53;;;26.30;73.50;;;;;;5014240;28;20182;-68
2022/08/16 09:54:09;;;;;;;3.50;2.10;;;26.40;73.80;;;;;;5015120;28;20179;-68
2022/08/16 09:56:37;;;;;;;4.80;1.90;;;26.80;73.20;;;;;;5014939;28;20218;-69
2022/08/16 09:59:05;;;;;;;6.10;2.45;;;27.20;72.00;;;;;;5014905;28;20527;-68
2022/08/16 10:01:30;;;;;;;4.18;2.42;;;27.20;72.00;;;;;;5014427;28;20656;-68
2022/08/16 10:03:56;;;;;;;3.60;2.30;;;27.00;72.50;;;;;;5014824;28;20253;-68
2022/08/16 10:06:23;;;;;;;3.65;2.15;;;27.20;70.40;;;;;;5014683;28;20175;-68
2022/08/16 10:08:49;;;;;;;3.53;2.40;;;27.20;69.80;;;;;;5014671;28;20182;-68
2022/08/16 10:14:01;;;;;;;7.43;2.10;;;27.20;69.50;;;;;;5014801;28;20250;-68
2022/08/16 10:16:27;;;;;;;3.60;1.63;;;26.90;70.70;;;;;;5014530;28;20884;-68
2022/08/16 10:18:53;;;;;;;3.60;1.80;;;26.50;72.00;;;;;;5014448;28;20544;-69
2022/08/16 10:21:19;;;;;;;4.30;2.30;;;26.20;72.10;;;;;;5014034;28;20182;-68
2022/08/16 10:23:45;;;;;;;4.13;2.30;;;26.20;73.00;;;;;;5014314;28;20256;-68
2022/08/16 10:26:11;;;;;;;10.23;2.50;;;26.60;70.50;;;;;;5014412;28;20183;-68
2022/08/16 10:28:38;;;;;;;5.27;2.87;;;26.90;71.60;;;;;;5014416;28;20421;-69
2022/08/16 10:31:05;;;;;;;5.93;2.10;;;26.50;70.40;;;;;;5014113;28;20410;-68
2022/08/16 10:33:32;;;;;;;3.30;1.70;;;26.30;70.80;;;;;;5013629;28;20409;-68
2022/08/16 10:35:59;;;;;;;3.87;2.27;;;26.20;73.10;;;;;;5014414;28;20809;-68
2022/08/16 10:38:25;;;;;;;4.73;2.43;;;25.80;72.30;;;;;;5014365;28;20426;-68
2022/08/16 10:40:53;;;;;;;5.30;2.13;;;25.50;74.10;;;;;;5014280;28;20409;-68
2022/08/16 10:43:19;;;;;;;3.50;2.33;;;25.70;73.90;;;;;;5014160;28;20445;-68
2022/08/16 10:45:47;;;;;;;8.77;2.67;;;25.80;74.10;;;;;;5014077;28;20425;-68
2022/08/16 10:48:12;;;;;;;3.20;2.20;;;25.90;72.60;;;;;;5014088;28;20185;-68
2022/08/16 10:50:38;;;;;;;11.23;3.17;;;26.00;73.00;;;;;;5013098;28;20500;-68
2022/08/16 10:53:05;;;;;;;4.27;2.30;;;26.30;72.90;;;;;;5013579;28;20175;-68
2022/08/16 10:55:40;;;;;;;7.60;2.33;;;26.40;72.00;;;;;;5014065;28;20191;-69
2022/08/16 10:58:07;;;;;;;5.93;2.03;;;26.40;71.60;;;;;;5014042;28;20433;-68
2022/08/16 11:00:37;;;;;;;3.07;1.80;;;26.60;70.00;;;;;;5013710;28;20425;-68
2022/08/16 11:03:03;;;;;;;3.57;2.03;;;26.80;69.90;;;;;;5013552;28;20406;-68
2022/08/16 11:05:32;;;;;;;2.83;1.83;;;26.70;69.10;;;;;;5013744;28;20416;-68
2022/08/16 11:07:59;;;;;;;8.67;2.20;;;26.10;71.30;;;;;;5013731;28;20198;-68
2022/08/16 11:10:31;;;;;;;3.00;1.73;;;25.80;71.90;;;;;;5013783;28;20429;-68
2022/08/16 11:12:57;;;;;;;6.37;2.37;;;25.70;72.30;;;;;;5013165;28;20438;-68
2022/08/16 11:15:23;;;;;;;5.47;2.40;;;25.80;72.40;;;;;;5013012;28;20491;-68
2022/08/16 11:17:51;;;;;;;4.00;2.33;;;26.10;71.70;;;;;;5012748;28;20189;-68
2022/08/16 11:20:18;;;;;;;4.27;2.03;;;26.30;70.20;;;;;;5012603;28;20409;-68
2022/08/16 11:22:45;;;;;;;3.23;1.50;;;26.40;70.60;;;;;;5012246;28;20417;-68
2022/08/16 11:25:12;;;;;;;8.10;2.00;;;26.50;71.30;;;;;;5012547;28;20446;-68
2022/08/16 11:27:38;;;;;;;6.00;2.57;;;26.80;69.40;;;;;;5012789;28;20420;-68
2022/08/16 11:30:06;;;;;;;5.80;2.10;;;27.10;68.40;;;;;;5012506;28;20421;-67
2022/08/16 11:32:33;;;;;;;2.87;1.73;;;27.00;68.30;;;;;;5012558;28;20254;-68
2022/08/16 11:35:01;;;;;;;3.10;1.87;;;26.70;68.90;;;;;;5012944;28;20418;-68
2022/08/16 11:37:26;;;;;;;3.97;2.40;;;26.30;69.90;;;;;;5013218;28;20416;-68
2022/08/16 11:39:52;;;;;;;4.20;2.03;;;26.10;71.60;;;;;;5013076;28;20410;-68
2022/08/16 11:42:18;;;;;;;5.20;2.63;;;25.90;71.70;;;;;;5012833;28;20190;-68
2022/08/16 11:44:43;;;;;;;4.10;2.17;;;26.00;71.60;;;;;;5012881;28;20171;-68
2022/08/16 11:47:09;;;;;;;5.80;2.57;;;26.00;72.00;;;;;;5013114;28;20178;-68
2022/08/16 11:49:35;;;;;;;7.07;2.50;;;26.20;71.20;;;;;;5012894;28;20182;-68
2022/08/16 11:52:00;;;;;;;7.00;2.37;;;26.30;69.70;;;;;;5011861;28;20178;-68
2022/08/16 11:54:26;;;;;;;5.87;2.37;;;26.20;70.00;;;;;;5012866;28;20530;-68
2022/08/16 11:56:52;;;;;;;3.80;2.27;;;26.20;69.60;;;;;;5012739;28;20256;-68
2022/08/16 11:59:18;;;;;;;3.47;1.87;;;26.10;69.90;;;;;;5013072;28;20245;-68
2022/08/16 12:01:44;;;;;;;4.47;2.73;;;25.90;71.30;;;;;;5011979;28;20682;-68
2022/08/16 12:04:10;;;;;;;6.63;2.53;;;26.10;70.00;;;;;;5013007;28;20171;-68
2022/08/16 12:06:36;;;;;;;3.63;2.07;;;26.30;68.80;;;;;;5012684;28;20447;-68
2022/08/16 12:09:03;;;;;;;5.30;2.53;;;26.60;68.20;;;;;;5012988;28;20179;-68
2022/08/16 12:11:30;;;;;;;5.80;2.47;;;26.60;67.30;;;;;;5012397;28;20321;-68
2022/08/16 12:13:56;;;;;;;5.73;2.97;;;26.50;67.70;;;;;;5012951;28;20496;-68
2022/08/16 12:16:21;;;;;;;3.67;2.30;;;26.20;68.40;;;;;;5012824;28;20485;-68
2022/08/16 12:18:48;;;;;;;3.03;2.20;;;26.10;70.40;;;;;;5012825;28;20167;-68
2022/08/16 12:21:15;;;;;;;2.60;1.80;;;26.10;68.80;;;;;;5012402;28;20163;-69
2022/08/16 12:23:40;;;;;;;4.70;2.03;;;26.20;69.20;;;;;;5012583;28;20419;-68
2022/08/16 12:26:06;;;;;;;11.23;2.33;;;26.20;68.90;;;;;;5012481;28;20500;-68
2022/08/16 12:28:32;;;;;;;6.50;2.10;;;26.60;68.20;;;;;;5012642;28;20234;-68
2022/08/16 12:30:57;;;;;;;5.40;2.07;;;27.10;68.00;;;;;;5012230;28;20175;-68
2022/08/16 12:33:23;;;;;;;4.83;2.13;;;27.50;67.30;;;;;;5012344;28;20179;-69
2022/08/16 12:35:49;;;;;;;3.73;2.10;;;27.90;63.70;;;;;;5012475;28;20199;-69
2022/08/16 12:38:15;;;;;;;5.07;1.87;;;28.00;62.70;;;;;;5012639;28;20623;-68
2022/08/16 12:40:45;;;;;;;3.63;1.77;;;27.80;64.50;;;;;;5012839;28;20197;-68
2022/08/16 12:43:12;;;;;;;3.87;1.87;;;27.50;64.60;;;;;;5012606;28;20174;-68
2022/08/16 12:45:48;;;;;;;3.80;2.23;;;27.40;64.70;;;;;;5012518;28;20182;-69